createdAt,value
2022-08-16T00:00:22.239Z,3.90
2022-08-16T00:02:50.591Z,3.47
2022-08-16T00:05:20.066Z,3.80
2022-08-16T00:07:49.454Z,3.88
2022-08-16T00:10:26.456Z,3.58
2022-08-16T00:12:57.043Z,4.13
2022-08-16T00:15:51.371Z,3.55
2022-08-16T00:18:19.471Z,3.83
2022-08-16T00:20:50.867Z,3.60
2022-08-16T00:23:24.572Z,3.72
2022-08-16T00:26:34.858Z,3.70
2022-08-16T00:28:55.846Z,3.85
2022-08-16T00:31:24.191Z,4.45
2022-08-16T00:33:52.217Z,3.78
2022-08-16T00:36:20.544Z,3.80
2022-08-16T00:38:49.600Z,3.72
2022-08-16T00:41:17.898Z,4.03
2022-08-16T00:43:47.080Z,4.18
2022-08-16T00:46:33.759Z,3.92
2022-08-16T00:49:05.181Z,3.60
2022-08-16T00:51:33.706Z,4.07
2022-08-16T00:54:02.782Z,3.97
2022-08-16T00:56:56.513Z,3.90
2022-08-16T00:59:25.217Z,4.25
2022-08-16T01:01:54.102Z,4.43
2022-08-16T01:04:30.076Z,4.40
2022-08-16T01:07:01.051Z,4.60
2022-08-16T01:09:33.608Z,4.38
2022-08-16T01:12:03.149Z,5.07
2022-08-16T01:14:36.655Z,4.45
2022-08-16T01:17:08.245Z,4.07
2022-08-16T01:19:41.101Z,4.05
2022-08-16T01:22:48.373Z,4.32
2022-08-16T01:25:07.803Z,4.35
2022-08-16T01:27:39.914Z,4.70
2022-08-16T01:30:20.681Z,4.18
2022-08-16T01:33:01.763Z,4.53
2022-08-16T01:35:42.252Z,4.47
2022-08-16T01:38:20.023Z,4.00
2022-08-16T01:40:50.958Z,4.53
2022-08-16T01:43:18.921Z,5.13
2022-08-16T01:45:47.309Z,4.32
2022-08-16T01:48:28.574Z,4.70
2022-08-16T01:51:08.185Z,5.00
2022-08-16T01:53:40.687Z,5.03
2022-08-16T01:56:22.068Z,4.82
2022-08-16T01:58:52.548Z,4.57
2022-08-16T02:01:20.274Z,4.82
2022-08-16T02:03:50.570Z,4.57
2022-08-16T02:06:34.667Z,4.20
2022-08-16T02:09:11.743Z,4.78
2022-08-16T02:11:47.600Z,4.50
2022-08-16T02:14:18.632Z,5.00
2022-08-16T02:16:49.595Z,5.10
2022-08-16T02:19:19.800Z,4.85
2022-08-16T02:22:08.531Z,4.78
2022-08-16T02:24:45.979Z,4.50
2022-08-16T02:27:15.617Z,5.20
2022-08-16T02:29:44.370Z,5.13
2022-08-16T02:32:48.993Z,4.72
2022-08-16T02:35:04.686Z,4.97
2022-08-16T02:37:52.070Z,5.25
2022-08-16T02:40:22.115Z,4.88
2022-08-16T02:42:52.598Z,4.75
2022-08-16T02:45:24.790Z,4.72
2022-08-16T02:48:00.421Z,5.28
2022-08-16T02:50:53.545Z,5.43
2022-08-16T02:53:23.672Z,5.18
2022-08-16T02:55:51.703Z,4.88
2022-08-16T02:58:25.130Z,4.88
2022-08-16T03:00:56.042Z,5.47
2022-08-16T03:03:26.205Z,5.40
2022-08-16T03:05:54.350Z,5.45
2022-08-16T03:08:51.316Z,5.10
2022-08-16T03:11:16.838Z,5.80
2022-08-16T03:13:51.135Z,4.97
2022-08-16T03:16:33.045Z,5.28
2022-08-16T03:19:08.306Z,4.70
2022-08-16T03:21:38.265Z,5.43
2022-08-16T03:24:29.425Z,4.47
2022-08-16T03:26:57.735Z,5.80
2022-08-16T03:29:30.117Z,5.68
2022-08-16T03:31:59.249Z,5.53
2022-08-16T03:34:27.505Z,5.38
2022-08-16T03:36:55.934Z,5.60
2022-08-16T03:39:24.373Z,5.93
2022-08-16T03:41:59.780Z,5.25
2022-08-16T03:44:44.404Z,5.72
2022-08-16T03:47:18.656Z,6.72
2022-08-16T03:49:51.976Z,5.75
2022-08-16T03:52:20.551Z,5.88
2022-08-16T03:54:58.162Z,6.60
2022-08-16T03:57:31.706Z,6.20
2022-08-16T04:03:07.356Z,5.03
2022-08-16T04:05:37.696Z,6.17
2022-08-16T04:08:22.394Z,5.85
2022-08-16T04:10:52.755Z,5.70
2022-08-16T04:14:00.597Z,6.13
2022-08-16T04:16:27.245Z,5.68
2022-08-16T04:21:32.394Z,6.32
2022-08-16T04:24:00.770Z,5.95
2022-08-16T04:26:30.955Z,6.50
2022-08-16T04:29:16.659Z,6.70
2022-08-16T04:31:56.316Z,6.15
2022-08-16T04:34:28.021Z,5.95
2022-08-16T04:36:58.022Z,5.45
2022-08-16T04:39:44.854Z,5.72
2022-08-16T04:42:15.090Z,6.13
2022-08-16T04:44:53.508Z,6.57
2022-08-16T04:47:25.276Z,6.15
2022-08-16T04:49:59.946Z,6.90
2022-08-16T04:52:34.213Z,5.70
2022-08-16T04:55:07.427Z,5.75
2022-08-16T04:57:35.582Z,6.07
2022-08-16T05:00:32.895Z,5.85
2022-08-16T05:03:01.317Z,5.85
2022-08-16T05:05:34.604Z,5.97
2022-08-16T05:08:28.433Z,6.10
2022-08-16T05:11:00.373Z,6.68
2022-08-16T05:13:39.955Z,6.18
2022-08-16T05:16:11.914Z,5.97
2022-08-16T05:18:45.999Z,6.23
2022-08-16T05:21:14.888Z,6.28
2022-08-16T05:23:45.465Z,6.18
2022-08-16T05:26:27.935Z,5.75
2022-08-16T05:28:56.483Z,6.00
2022-08-16T05:31:29.314Z,6.00
2022-08-16T05:34:00.238Z,6.10
2022-08-16T05:36:34.347Z,5.53
2022-08-16T05:39:06.336Z,5.85
2022-08-16T05:41:44.743Z,5.38
2022-08-16T05:44:24.213Z,5.63
2022-08-16T05:46:54.730Z,5.40
2022-08-16T05:49:24.647Z,5.97
2022-08-16T05:51:55.367Z,5.80
2022-08-16T05:54:25.179Z,5.57
2022-08-16T05:56:54.197Z,5.57
2022-08-16T05:59:26.813Z,5.32
2022-08-16T06:01:55.767Z,5.43
2022-08-16T06:04:36.702Z,5.20
2022-08-16T06:07:08.838Z,5.57
2022-08-16T06:09:43.497Z,5.00
2022-08-16T06:12:26.682Z,5.10
2022-08-16T06:14:59.157Z,5.00
2022-08-16T06:17:43.291Z,5.47
2022-08-16T06:20:18.603Z,5.43
2022-08-16T06:22:57.791Z,5.15
2022-08-16T06:25:36.179Z,5.20
2022-08-16T06:28:08.892Z,4.35
2022-08-16T06:30:43.752Z,4.60
2022-08-16T06:33:13.480Z,4.88
2022-08-16T06:35:55.229Z,4.90
2022-08-16T06:38:32.177Z,5.10
2022-08-16T06:41:03.830Z,4.72
2022-08-16T06:43:32.017Z,4.50
2022-08-16T06:46:00.811Z,5.10
2022-08-16T06:48:33.781Z,5.15
2022-08-16T06:51:04.578Z,5.65
2022-08-16T06:53:35.743Z,4.80
2022-08-16T06:56:14.473Z,4.75
2022-08-16T06:58:52.464Z,5.15
2022-08-16T07:01:26.286Z,4.13
2022-08-16T07:04:11.895Z,4.80
2022-08-16T07:06:43.110Z,4.45
2022-08-16T07:09:11.847Z,4.85
2022-08-16T07:11:46.111Z,4.38
2022-08-16T07:14:25.743Z,4.60
2022-08-16T07:16:58.385Z,4.82
2022-08-16T07:20:01.512Z,4.80
2022-08-16T07:22:38.795Z,4.78
2022-08-16T07:25:07.284Z,5.47
2022-08-16T07:27:37.353Z,4.50
2022-08-16T07:30:38.155Z,5.60
2022-08-16T07:32:56.494Z,5.07
2022-08-16T07:35:24.498Z,4.28
2022-08-16T07:37:54.204Z,5.07
2022-08-16T07:40:37.017Z,4.75
2022-08-16T07:43:10.359Z,4.68
2022-08-16T07:45:39.218Z,5.00
2022-08-16T07:48:12.465Z,4.90
2022-08-16T07:50:57.729Z,4.88
2022-08-16T07:53:30.135Z,4.72
2022-08-16T07:55:58.538Z,4.28
2022-08-16T07:58:34.198Z,4.80
2022-08-16T08:01:10.063Z,4.43
2022-08-16T08:03:42.498Z,4.75
2022-08-16T08:06:13.386Z,4.55
2022-08-16T08:08:50.777Z,4.00
2022-08-16T08:11:19.676Z,4.18
2022-08-16T08:13:50.767Z,4.80
2022-08-16T08:16:19.946Z,4.70
2022-08-16T08:18:50.459Z,4.78
2022-08-16T08:21:27.245Z,4.28
2022-08-16T08:23:57.641Z,4.53
2022-08-16T08:26:25.970Z,5.30
2022-08-16T08:28:53.690Z,4.35
2022-08-16T08:31:28.645Z,4.20
2022-08-16T08:33:57.073Z,5.38
2022-08-16T08:36:33.024Z,4.28
2022-08-16T08:39:03.133Z,4.90
2022-08-16T08:41:40.507Z,4.97
2022-08-16T08:44:28.866Z,4.20
2022-08-16T08:47:00.619Z,3.90
2022-08-16T08:49:50.311Z,4.53
2022-08-16T08:52:35.023Z,4.53
2022-08-16T08:55:11.040Z,4.18
2022-08-16T08:57:40.730Z,4.85
2022-08-16T09:00:13.493Z,4.05
2022-08-16T09:02:42.622Z,4.10
2022-08-16T09:05:15.466Z,4.45
2022-08-16T09:08:01.650Z,4.32
2022-08-16T09:10:34.848Z,4.60
2022-08-16T09:13:08.667Z,4.32
2022-08-16T09:15:39.683Z,4.13
2022-08-16T09:18:25.052Z,5.10
2022-08-16T09:20:58.885Z,4.13
2022-08-16T09:23:31.397Z,4.03
2022-08-16T09:29:15.438Z,4.25
2022-08-16T09:31:41.965Z,3.72
2022-08-16T09:34:10.440Z,3.85
2022-08-16T09:36:46.177Z,3.53
2022-08-16T09:39:15.809Z,4.25
2022-08-16T09:41:53.213Z,3.40
2022-08-16T09:45:12.829Z,3.47
2022-08-16T09:47:11.644Z,3.67
2022-08-16T09:49:41.081Z,3.95
2022-08-16T09:52:11.245Z,3.35
2022-08-16T09:54:44.562Z,3.60
2022-08-16T09:57:14.435Z,3.63
2022-08-16T09:59:43.328Z,3.58
2022-08-16T10:02:26.494Z,3.35
2022-08-16T10:04:56.396Z,4.30
2022-08-16T10:07:24.830Z,3.78
2022-08-16T10:09:55.675Z,3.70
2022-08-16T10:12:44.123Z,3.97
2022-08-16T10:15:16.024Z,3.22
2022-08-16T10:18:00.347Z,3.20
2022-08-16T10:20:32.557Z,3.40
2022-08-16T10:23:06.723Z,3.15
2022-08-16T10:27:16.669Z,3.70
2022-08-16T10:28:28.989Z,3.08
2022-08-16T10:30:58.978Z,3.05
2022-08-16T10:33:29.299Z,3.67
2022-08-16T10:36:03.058Z,3.67
2022-08-16T10:38:33.215Z,3.00
2022-08-16T10:41:05.173Z,3.78
2022-08-16T10:43:36.834Z,3.05
2022-08-16T10:46:39.842Z,4.05
2022-08-16T10:48:52.796Z,3.40
2022-08-16T10:51:20.512Z,3.25
2022-08-16T10:54:02.694Z,3.35
2022-08-16T10:56:44.338Z,3.58
2022-08-16T10:59:38.537Z,2.85
2022-08-16T11:02:59.478Z,3.15
2022-08-16T11:05:08.107Z,3.03
2022-08-16T11:07:45.600Z,3.22
2022-08-16T11:19:06.363Z,3.38
2022-08-16T11:22:39.247Z,3.08
2022-08-16T11:24:41.477Z,3.30
2022-08-16T11:27:23.943Z,3.08
2022-08-16T11:30:01.327Z,3.17
2022-08-16T11:32:33.829Z,2.70
2022-08-16T11:35:13.334Z,3.10
2022-08-16T11:40:37.746Z,3.63
2022-08-16T11:43:06.804Z,2.92
2022-08-16T11:45:38.305Z,3.38
2022-08-16T11:48:08.579Z,3.50
2022-08-16T11:50:36.984Z,3.05
2022-08-16T11:53:08.170Z,2.97
2022-08-16T11:55:38.399Z,2.85
2022-08-16T11:58:07.803Z,3.08
2022-08-16T12:00:50.617Z,2.80
2022-08-16T12:03:24.964Z,3.08
2022-08-16T12:06:00.544Z,2.70
2022-08-16T12:08:28.398Z,3.45
2022-08-16T12:10:59.427Z,2.67
2022-08-16T12:13:30.186Z,2.88
2022-08-16T12:15:58.198Z,3.17
2022-08-16T12:18:27.260Z,3.28
2022-08-16T12:20:55.459Z,3.08
2022-08-16T12:23:26.261Z,2.97
2022-08-16T12:25:54.477Z,2.92
2022-08-16T12:28:37.072Z,3.70
2022-08-16T12:31:10.445Z,3.13
2022-08-16T12:33:44.765Z,3.10
2022-08-16T12:36:14.029Z,2.72
2022-08-16T12:38:48.269Z,2.67
2022-08-16T12:41:25.369Z,3.33
2022-08-16T12:43:57.301Z,3.75
2022-08-16T12:46:30.933Z,3.38
2022-08-16T12:49:00.337Z,2.90
2022-08-16T12:51:57.744Z,2.67
2022-08-16T12:54:20.151Z,2.95
2022-08-16T12:56:48.137Z,2.75
2022-08-16T12:59:20.885Z,2.90
2022-08-16T13:01:50.644Z,2.75
2022-08-16T13:04:31.381Z,2.83
2022-08-16T13:09:31.904Z,2.80
2022-08-16T13:12:18.881Z,2.70
2022-08-16T13:14:49.875Z,3.03
2022-08-16T13:17:21.259Z,3.10
2022-08-16T13:20:09.201Z,2.85
2022-08-16T13:25:12.274Z,2.88
2022-08-16T13:28:01.506Z,3.15
2022-08-16T13:30:35.999Z,2.50
2022-08-16T13:33:12.502Z,2.88
2022-08-16T13:35:43.917Z,2.72
2022-08-16T13:38:21.691Z,2.97
2022-08-16T13:40:53.793Z,2.85
2022-08-16T13:43:24.996Z,2.78
2022-08-16T13:45:55.297Z,2.70
2022-08-16T13:48:25.363Z,3.28
2022-08-16T13:50:56.378Z,2.90
2022-08-16T13:53:24.888Z,2.55
2022-08-16T13:55:58.578Z,2.85
2022-08-16T13:58:37.210Z,2.90
2022-08-16T14:01:17.119Z,2.45
2022-08-16T14:03:45.260Z,2.65
2022-08-16T14:06:15.160Z,2.50
2022-08-16T14:08:58.825Z,2.88
2022-08-16T14:11:34.470Z,2.60
2022-08-16T14:14:05.342Z,2.50
2022-08-16T14:16:34.889Z,2.38
2022-08-16T14:19:03.158Z,3.00
2022-08-16T14:21:35.455Z,2.63
2022-08-16T14:24:16.728Z,2.90
2022-08-16T14:26:51.192Z,2.90
2022-08-16T14:29:20.869Z,2.78
2022-08-16T14:31:49.559Z,2.90
2022-08-16T14:34:21.514Z,2.85
2022-08-16T14:36:54.900Z,2.67
2022-08-16T14:39:23.264Z,3.03
2022-08-16T14:41:53.704Z,3.40
2022-08-16T14:44:24.107Z,3.28
2022-08-16T14:46:54.024Z,2.75
2022-08-16T14:49:21.735Z,3.03
2022-08-16T14:51:49.484Z,3.42
2022-08-16T14:54:18.567Z,2.90
2022-08-16T14:56:54.873Z,3.20
2022-08-16T14:59:23.663Z,3.08
2022-08-16T15:01:59.295Z,3.10
2022-08-16T15:04:32.363Z,3.22
2022-08-16T15:07:11.098Z,2.60
2022-08-16T15:09:44.668Z,3.00
2022-08-16T15:12:33.622Z,2.97
2022-08-16T15:15:04.261Z,3.03
2022-08-16T15:17:33.971Z,3.25
2022-08-16T15:20:08.636Z,3.40
2022-08-16T15:22:41.977Z,2.63
2022-08-16T15:25:15.901Z,3.70
2022-08-16T15:27:43.708Z,3.67
2022-08-16T15:30:57.843Z,3.45
2022-08-16T15:33:04.745Z,3.35
2022-08-16T15:35:33.476Z,3.33
2022-08-16T15:38:09.183Z,3.50
2022-08-16T15:40:57.994Z,3.90
2022-08-16T15:43:33.793Z,3.35
2022-08-16T15:46:35.298Z,3.20
2022-08-16T15:49:15.453Z,3.25
2022-08-16T15:51:45.738Z,2.80
2022-08-16T15:54:30.115Z,3.50
2022-08-16T15:57:11.463Z,3.05
2022-08-16T15:59:48.784Z,3.45
2022-08-16T16:02:29.604Z,3.15
2022-08-16T16:05:01.839Z,3.53
2022-08-16T16:07:32.065Z,3.63
2022-08-16T16:10:02.545Z,3.40
2022-08-16T16:12:51.145Z,3.60
2022-08-16T16:15:22.611Z,3.17
2022-08-16T16:17:52.499Z,3.00
2022-08-16T16:20:21.366Z,3.22
2022-08-16T16:22:49.376Z,3.10
2022-08-16T16:25:18.351Z,3.33
2022-08-16T16:27:55.881Z,2.72
2022-08-16T16:30:38.305Z,3.55
2022-08-16T16:33:20.459Z,2.92
2022-08-16T16:35:55.524Z,2.90
2022-08-16T16:38:28.501Z,3.03
2022-08-16T16:40:56.223Z,3.00
2022-08-16T16:43:31.343Z,3.05
2022-08-16T16:46:00.445Z,3.60
2022-08-16T16:48:34.912Z,3.10
2022-08-16T16:51:09.466Z,2.90
2022-08-16T16:53:39.388Z,3.03
2022-08-16T16:56:10.540Z,3.67
2022-08-16T16:59:01.023Z,3.05
2022-08-16T17:01:59.344Z,3.10
2022-08-16T17:04:32.493Z,2.90
2022-08-16T17:07:01.427Z,3.20
2022-08-16T17:09:29.550Z,3.08
2022-08-16T17:11:58.149Z,3.45
2022-08-16T17:14:33.563Z,3.28
2022-08-16T17:17:04.015Z,2.85
2022-08-16T17:19:32.174Z,3.05
2022-08-16T17:22:00.201Z,3.17
2022-08-16T17:24:33.084Z,3.30
2022-08-16T17:27:07.851Z,3.45
2022-08-16T17:29:42.853Z,2.92
2022-08-16T17:32:34.033Z,3.25
2022-08-16T17:35:10.799Z,3.25
2022-08-16T17:37:48.786Z,2.88
2022-08-16T17:40:40.808Z,2.72
2022-08-16T17:43:13.415Z,2.85
2022-08-16T17:45:43.648Z,3.17
2022-08-16T17:48:12.270Z,3.13
2022-08-16T17:50:41.607Z,2.95
2022-08-16T17:53:11.512Z,3.17
2022-08-16T17:55:42.213Z,3.35
2022-08-16T17:58:20.129Z,2.88
2022-08-16T18:00:54.757Z,3.28
2022-08-16T18:04:02.667Z,3.22
2022-08-16T18:06:15.362Z,2.65
2022-08-16T18:08:43.111Z,2.88
2022-08-16T18:11:13.340Z,2.83
2022-08-16T18:13:43.063Z,2.97
2022-08-16T18:16:14.631Z,2.65
2022-08-16T18:18:46.097Z,2.70
2022-08-16T18:21:32.989Z,3.10
2022-08-16T18:24:00.837Z,3.08
2022-08-16T18:26:28.645Z,2.70
2022-08-16T18:28:56.338Z,2.75
2022-08-16T18:31:25.955Z,2.85
2022-08-16T18:33:55.541Z,2.80
2022-08-16T18:36:23.965Z,3.15
2022-08-16T18:38:53.117Z,2.80
2022-08-16T18:41:21.983Z,2.60
2022-08-16T18:44:14.207Z,3.00
2022-08-16T18:46:39.611Z,2.90
2022-08-16T18:49:07.705Z,3.03
2022-08-16T18:51:36.906Z,2.72
2022-08-16T18:54:05.050Z,2.90
2022-08-16T18:56:54.330Z,3.03
2022-08-16T18:59:20.419Z,2.70
2022-08-16T19:01:50.342Z,2.58
2022-08-16T19:04:55.531Z,3.53
2022-08-16T19:07:05.830Z,2.58
2022-08-16T19:09:34.097Z,2.90
2022-08-16T19:12:05.059Z,2.88
2022-08-16T19:14:32.742Z,3.10
2022-08-16T19:17:01.800Z,2.80
2022-08-16T19:19:29.518Z,2.63
2022-08-16T19:21:58.244Z,2.60
2022-08-16T19:24:29.230Z,3.03
2022-08-16T19:26:57.329Z,3.42
2022-08-16T19:29:25.286Z,3.20
2022-08-16T19:31:53.132Z,3.10
2022-08-16T19:34:22.171Z,2.88
2022-08-16T19:36:49.870Z,3.45
2022-08-16T19:39:18.174Z,2.70
2022-08-16T19:41:52.990Z,3.03
2022-08-16T19:44:22.112Z,3.25
2022-08-16T19:46:49.823Z,2.80
2022-08-16T19:49:17.944Z,3.58
2022-08-16T19:51:47.731Z,2.90
2022-08-16T19:54:15.955Z,3.40
2022-08-16T19:56:43.706Z,3.63
2022-08-16T19:59:20.561Z,3.22
2022-08-16T20:01:52.832Z,3.38
2022-08-16T20:04:22.007Z,3.22
2022-08-16T20:06:52.557Z,3.15
2022-08-16T20:09:20.648Z,3.10
2022-08-16T20:11:49.570Z,3.15
2022-08-16T20:14:20.141Z,3.72
2022-08-16T20:16:54.801Z,3.38
2022-08-16T20:19:22.523Z,3.47
2022-08-16T20:21:51.626Z,3.38
2022-08-16T20:24:36.034Z,3.88
2022-08-16T20:27:06.288Z,3.55
2022-08-16T20:29:34.710Z,3.13
2022-08-16T20:32:02.728Z,3.60
2022-08-16T20:34:30.473Z,3.80
2022-08-16T20:36:59.544Z,3.80
2022-08-16T20:39:27.925Z,4.00
2022-08-16T20:41:55.650Z,3.70
2022-08-16T20:44:25.172Z,3.38
2022-08-16T20:46:53.252Z,3.35
2022-08-16T20:49:20.986Z,3.60
2022-08-16T20:51:50.982Z,3.50
2022-08-16T20:54:23.044Z,3.72
2022-08-16T20:56:50.795Z,3.58
2022-08-16T20:59:18.578Z,3.60
2022-08-16T21:01:50.629Z,3.25
2022-08-16T21:04:19.713Z,3.80
2022-08-16T21:06:52.991Z,4.53
2022-08-16T21:09:23.175Z,3.83
2022-08-16T21:11:52.987Z,4.25
2022-08-16T21:14:20.762Z,3.80
2022-08-16T21:16:48.512Z,3.80
2022-08-16T21:19:16.348Z,4.00
2022-08-16T21:21:44.050Z,3.70
2022-08-16T21:24:11.737Z,3.70
2022-08-16T21:26:40.803Z,3.65
2022-08-16T21:29:21.646Z,3.45
2022-08-16T21:31:52.566Z,3.50
2022-08-16T21:34:20.330Z,4.07
2022-08-16T21:36:48.644Z,3.97
2022-08-16T21:39:16.332Z,3.67
2022-08-16T21:41:45.364Z,3.83
2022-08-16T21:44:13.033Z,3.95
2022-08-16T21:46:40.739Z,3.65
2022-08-16T21:49:08.422Z,4.05
2022-08-16T21:51:36.252Z,3.60
2022-08-16T21:54:04.092Z,4.03
2022-08-16T21:56:31.979Z,3.88
2022-08-16T21:59:01.023Z,3.88
2022-08-16T22:01:29.516Z,3.80
2022-08-16T22:04:09.536Z,4.03
2022-08-16T22:06:45.036Z,3.90
2022-08-16T22:09:15.476Z,4.15
2022-08-16T22:11:44.206Z,4.03
2022-08-16T22:14:13.206Z,3.85
2022-08-16T22:16:42.043Z,3.78
2022-08-16T22:19:09.875Z,4.40
2022-08-16T22:21:37.602Z,4.47
2022-08-16T22:24:06.244Z,3.85
2022-08-16T22:26:42.275Z,3.85
2022-08-16T22:29:14.826Z,3.92
2022-08-16T22:31:44.334Z,4.07
2022-08-16T22:34:12.838Z,4.90
2022-08-16T22:36:40.848Z,4.95
2022-08-16T22:39:11.068Z,4.55
2022-08-16T22:41:39.935Z,4.40
2022-08-16T22:44:08.132Z,5.43
2022-08-16T22:46:38.402Z,4.10
2022-08-16T22:49:07.747Z,4.45
2022-08-16T22:51:36.653Z,4.35
2022-08-16T22:54:47.362Z,4.20
2022-08-16T22:56:52.873Z,4.75
2022-08-16T22:59:20.565Z,4.32
2022-08-16T23:01:49.614Z,4.32
2022-08-16T23:04:17.627Z,4.40
2022-08-16T23:06:45.342Z,4.75
2022-08-16T23:09:13.106Z,5.00
2022-08-16T23:11:40.797Z,4.88
2022-08-16T23:14:08.486Z,4.82
2022-08-16T23:16:36.168Z,4.50
2022-08-16T23:19:07.230Z,5.57
2022-08-16T23:21:37.105Z,5.45
2022-08-16T23:24:06.885Z,5.15
2022-08-16T23:26:46.564Z,4.90
2022-08-16T23:29:23.571Z,5.25
2022-08-16T23:31:53.600Z,5.68
2022-08-16T23:34:22.967Z,5.63
2022-08-16T23:36:50.646Z,5.07
2022-08-16T23:39:18.330Z,6.40
2022-08-16T23:41:46.056Z,5.63
2022-08-16T23:44:56.780Z,5.40
2022-08-16T23:47:01.585Z,5.38
2022-08-16T23:50:01.029Z,5.75
2022-08-16T23:52:18.996Z,5.38
2022-08-16T23:55:07.520Z,5.90
2022-08-16T23:57:35.196Z,5.35
